| time (UTC) | temp F | wind direction | speed knots | gust knots | rain 1hr in | rain 24hr in | rain mn in | humidity % | barometer mb |
| 20260507014543 | 71 | 233 | 2.6 | 7.8 | 0.00 | 0.00 | 0.00 | 39 | 1011.2 |
| 20260507013038 | 72 | 161 | 2.6 | 8.7 | 0.00 | 0.00 | 0.00 | 39 | 1011.2 |
| 20260507011543 | 73 | 284 | 4.3 | 10.4 | 0.00 | 0.00 | 0.00 | 38 | 1011.1 |
| 20260507010044 | 73 | 304 | 5.2 | 10.4 | 0.00 | 0.00 | 0.00 | 37 | 1011.0 |
| 20260507004536 | 74 | 289 | 3.5 | 10.4 | 0.00 | 0.00 | 0.00 | 36 | 1011.0 |
| 20260507003039 | 74 | 254 | 7.0 | 13.0 | 0.00 | 0.00 | 0.00 | 35 | 1010.9 |
| 20260507001542 | 75 | 147 | 4.3 | 11.3 | 0.00 | 0.00 | 0.00 | 34 | 1010.9 |
| 20260507000033 | 76 | 227 | 5.2 | 12.2 | 0.00 | 0.00 | 0.00 | 34 | 1010.9 |
| 20260506234532 | 76 | 255 | 3.5 | 9.6 | 0.00 | 0.00 | 0.00 | 34 | 1010.7 |
| 20260506233031 | 76 | 300 | 7.0 | 12.2 | 0.00 | 0.00 | 0.00 | 33 | 1010.7 |
| 20260506231530 | 77 | 273 | 2.6 | 10.4 | 0.00 | 0.00 | 0.00 | 34 | 1010.8 |
| 20260506230029 | 78 | 275 | 3.5 | 10.4 | 0.00 | 0.00 | 0.00 | 33 | 1010.9 |
| 20260506224529 | 78 | 265 | 2.6 | 10.4 | 0.00 | 0.00 | 0.00 | 35 | 1011.0 |
| 20260506223025 | 77 | 208 | 6.1 | 13.9 | 0.00 | 0.00 | 0.00 | 34 | 1011.3 |
| 20260506221523 | 77 | 275 | 7.0 | 13.9 | 0.00 | 0.00 | 0.00 | 31 | 1011.3 |
| 20260506220021 | 78 | 291 | 3.5 | 11.3 | 0.00 | 0.00 | 0.00 | 30 | 1011.5 |
| 20260506214519 | 78 | 252 | 5.2 | 11.3 | 0.00 | 0.00 | 0.00 | 29 | 1011.8 |
| 20260506213016 | 77 | 202 | 3.5 | 10.4 | 0.00 | 0.00 | 0.00 | 31 | 1011.9 |
| 20260506211514 | 77 | 279 | 5.2 | 10.4 | 0.00 | 0.00 | 0.00 | 30 | 1012.2 |
| 20260506210015 | 79 | 250 | 4.3 | 7.8 | 0.00 | 0.00 | 0.00 | 28 | 1012.3 |
| 20260506204511 | 78 | 191 | 4.3 | 9.6 | 0.00 | 0.00 | 0.00 | 30 | 1012.4 |
| 20260506203012 | 77 | 146 | 1.7 | 7.0 | 0.00 | 0.00 | 0.00 | 29 | 1012.5 |
| 20260506201502 | 77 | 229 | 4.3 | 8.7 | 0.00 | 0.00 | 0.00 | 29 | 1012.8 |
| 20260506200001 | 76 | 169 | 3.5 | 8.7 | 0.00 | 0.00 | 0.00 | 28 | 1012.9 |
| 20260506194557 | 74 | 229 | 2.6 | 7.0 | 0.00 | 0.00 | 0.00 | 30 | 1013.0 |
| 20260506193056 | 74 | 197 | 2.6 | 7.8 | 0.00 | 0.00 | 0.00 | 29 | 1013.2 |
| 20260506191553 | 73 | 167 | 0.9 | 4.3 | 0.00 | 0.00 | 0.00 | 31 | 1013.4 |
| 20260506190048 | 71 | 211 | 2.6 | 4.3 | 0.00 | 0.00 | 0.00 | 32 | 1013.4 |
| 20260506184546 | 69 | 234 | 3.5 | 7.0 | 0.00 | 0.00 | 0.00 | 34 | 1013.6 |
| 20260506183043 | 70 | 263 | 0.0 | 6.1 | 0.00 | 0.00 | 0.00 | 34 | 1013.7 |
| 20260506181538 | 68 | 163 | 2.6 | 5.2 | 0.00 | 0.00 | 0.00 | 35 | 1013.8 |
| 20260506180033 | 68 | 217 | 1.7 | 6.1 | 0.00 | 0.00 | 0.00 | 34 | 1014.0 |
| 20260506174529 | 67 | 250 | 2.6 | 5.2 | 0.00 | 0.00 | 0.00 | 37 | 1014.1 |
| 20260506173024 | 65 | 192 | 2.6 | 5.2 | 0.00 | 0.00 | 0.00 | 38 | 1014.1 |
| 20260506171521 | 64 | 203 | 0.9 | 6.1 | 0.00 | 0.00 | 0.00 | 41 | 1014.1 |
| 20260506170016 | 64 | 198 | 0.9 | 5.2 | 0.00 | 0.00 | 0.00 | 40 | 1014.2 |
| 20260506164511 | 62 | 248 | 0.9 | 4.3 | 0.00 | 0.00 | 0.00 | 43 | 1014.2 |
| 20260506163009 | 59 | 272 | 0.9 | 4.3 | 0.00 | 0.00 | 0.00 | 46 | 1014.3 |
| 20260506161503 | 56 | 248 | 0.0 | 3.5 | 0.00 | 0.00 | 0.00 | 47 | 1014.4 |
| 20260506160110 | 54 | 217 | 0.0 | 2.6 | 0.00 | 0.00 | 0.00 | 48 | 1014.3 |
| 20260506154559 | 53 | 271 | 0.0 | 2.6 | 0.00 | 0.00 | 0.00 | 48 | 1014.4 |
| 20260506153051 | 51 | 169 | 0.0 | 0.9 | 0.00 | 0.00 | 0.00 | 48 | 1014.4 |
| 20260506151548 | 50 | 161 | 0.0 | 1.7 | 0.00 | 0.00 | 0.00 | 48 | 1014.5 |
| 20260506150057 | 49 | 61 | 0.0 | 0.9 | 0.00 | 0.00 | 0.00 | 48 | 1014.5 |
| 20260506144601 | 48 | 61 | 0.0 | 0.9 | 0.00 | 0.00 | 0.00 | 49 | 1014.5 |
| 20260506143052 | 47 | 53 | 0.0 | 0.9 | 0.00 | 0.00 | 0.00 | 50 | 1014.5 |
| 20260506141544 | 46 | 53 | 0.0 | 0.0 | 0.00 | 0.00 | 0.00 | 50 | 1014.6 |
| 20260506140056 | 46 | 53 | 0.0 | 2.6 | 0.00 | 0.00 | 0.00 | 51 | 1014.3 |
| 20260506134539 | 45 | 53 | 0.0 | 0.0 | 0.00 | 0.00 | 0.00 | 51 | 1014.3 |
| 20260506133037 | 45 | 53 | 0.0 | 0.0 | 0.00 | 0.00 | 0.00 | 51 | 1014.2 |
| 20260506131542 | 45 | 53 | 0.0 | 0.0 | 0.00 | 0.00 | 0.00 | 52 | 1014.0 |
| 20260506130034 | 45 | 53 | 0.0 | 2.6 | 0.00 | 0.00 | 0.00 | 53 | 1013.9 |
| 20260506124533 | 45 | 52 | 0.0 | 0.0 | 0.00 | 0.00 | 0.00 | 54 | 1013.8 |
| 20260506123038 | 45 | 52 | 0.0 | 0.0 | 0.00 | 0.00 | 0.00 | 54 | 1013.7 |
| 20260506121528 | 45 | 52 | 0.0 | 0.9 | 0.00 | 0.00 | 0.00 | 54 | 1013.6 |
| 20260506120032 | 45 | 51 | 0.0 | 1.7 | 0.00 | 0.00 | 0.00 | 55 | 1013.5 |
| 20260506114526 | 46 | 51 | 0.0 | 3.5 | 0.00 | 0.00 | 0.00 | 55 | 1013.5 |
| 20260506113032 | 46 | 61 | 0.0 | 1.7 | 0.00 | 0.00 | 0.00 | 54 | 1013.4 |
| 20260506111524 | 46 | 60 | 0.9 | 3.5 | 0.00 | 0.00 | 0.00 | 54 | 1013.4 |
| 20260506110035 | 46 | 60 | 1.7 | 3.5 | 0.00 | 0.00 | 0.00 | 55 | 1013.5 |
| 20260506104526 | 46 | 56 | 1.7 | 3.5 | 0.00 | 0.00 | 0.00 | 55 | 1013.4 |
| 20260506103024 | 46 | 59 | 1.7 | 3.5 | 0.00 | 0.00 | 0.00 | 55 | 1013.4 |
| 20260506101518 | 46 | 45 | 0.9 | 3.5 | 0.00 | 0.00 | 0.00 | 56 | 1013.4 |
| 20260506100020 | 47 | 45 | 0.0 | 2.6 | 0.00 | 0.00 | 0.00 | 56 | 1013.5 |
| 20260506094516 | 47 | 45 | 1.7 | 3.5 | 0.00 | 0.01 | 0.00 | 56 | 1013.6 |
| 20260506093013 | 47 | 45 | 1.7 | 3.5 | 0.00 | 0.01 | 0.00 | 56 | 1013.7 |
| 20260506091511 | 48 | 45 | 0.9 | 1.7 | 0.00 | 0.01 | 0.00 | 56 | 1013.7 |
| 20260506090009 | 48 | 45 | 0.0 | 1.7 | 0.00 | 0.01 | 0.00 | 56 | 1013.7 |
| 20260506084507 | 48 | 45 | 0.9 | 3.5 | 0.00 | 0.01 | 0.00 | 57 | 1013.6 |
| 20260506083006 | 48 | 35 | 0.9 | 3.5 | 0.00 | 0.01 | 0.00 | 57 | 1013.7 |
| 20260506081507 | 49 | 35 | 0.9 | 2.6 | 0.00 | 0.01 | 0.00 | 56 | 1013.8 |
| 20260506073058 | 49 | 40 | 2.6 | 3.5 | 0.00 | 0.01 | 0.00 | 56 | 1013.7 |
| 20260506071555 | 50 | 40 | 1.7 | 3.5 | 0.00 | 0.01 | 0.00 | 56 | 1013.5 |
| 20260506061550 | 51 | 86 | 1.7 | 3.5 | 0.00 | 0.01 | 0.01 | 55 | 1012.7 |
| 20260506044548 | 55 | 209 | 0.9 | 4.3 | 0.00 | 0.01 | 0.01 | 49 | 1011.9 |
| 20260506043040 | 55 | 214 | 2.6 | 5.2 | 0.00 | 0.01 | 0.01 | 49 | 1011.8 |
| 20260506041542 | 56 | 230 | 1.7 | 3.5 | 0.00 | 0.01 | 0.01 | 49 | 1011.6 |
| 20260506040037 | 56 | 203 | 1.7 | 6.1 | 0.00 | 0.01 | 0.01 | 48 | 1011.4 |
| 20260506034545 | 57 | 184 | 0.0 | 4.3 | 0.00 | 0.01 | 0.01 | 47 | 1011.3 |
| 20260506033035 | 57 | 226 | 0.9 | 4.3 | 0.00 | 0.01 | 0.01 | 46 | 1011.1 |
| 20260506031543 | 57 | 199 | 0.9 | 6.1 | 0.00 | 0.01 | 0.01 | 46 | 1010.9 |
| 20260506030032 | 58 | 198 | 1.7 | 4.3 | 0.00 | 0.01 | 0.01 | 46 | 1010.8 |
| 20260506024533 | 58 | 217 | 2.6 | 7.0 | 0.00 | 0.01 | 0.01 | 50 | 1010.4 |
| 20260506023030 | 59 | 221 | 3.5 | 6.1 | 0.00 | 0.01 | 0.01 | 50 | 1010.1 |
| 20260506021530 | 60 | 205 | 1.7 | 7.8 | 0.00 | 0.01 | 0.01 | 48 | 1010.1 |
| 20260506020031 | 61 | 211 | 0.9 | 7.8 | 0.00 | 0.01 | 0.01 | 46 | 1010.0 |